createdAt,value
2022-10-22T00:00:43.106Z,8.51
2022-10-22T00:03:10.176Z,8.42
2022-10-22T00:05:39.382Z,8.31
2022-10-22T00:08:06.409Z,8.23
2022-10-22T00:10:38.476Z,8.17
2022-10-22T00:13:05.579Z,8.11
2022-10-22T00:15:32.874Z,8.04
2022-10-22T00:17:59.815Z,7.98
2022-10-22T00:20:28.803Z,7.90
2022-10-22T00:23:00.581Z,8.50
2022-10-22T00:25:27.586Z,9.24
2022-10-22T00:27:54.704Z,9.42
2022-10-22T00:30:21.764Z,9.30
2022-10-22T00:32:48.717Z,9.10
2022-10-22T00:35:17.615Z,8.91
2022-10-22T00:37:45.794Z,8.75
2022-10-22T00:40:13.346Z,8.61
2022-10-22T00:42:40.908Z,8.47
2022-10-22T00:45:11.227Z,8.31
2022-10-22T00:47:40.913Z,8.14
2022-10-22T00:50:10.032Z,7.98
2022-10-22T00:52:38.695Z,7.84
2022-10-22T00:55:06.352Z,8.36
2022-10-22T00:57:34.106Z,9.05
2022-10-22T01:00:01.262Z,9.18
2022-10-22T01:02:29.017Z,9.05
2022-10-22T01:04:56.129Z,8.82
2022-10-22T01:07:23.253Z,8.60
2022-10-22T01:10:00.520Z,8.39
2022-10-22T01:13:06.420Z,8.18
2022-10-22T01:15:59.319Z,7.97
2022-10-22T01:18:35.536Z,7.80
2022-10-22T01:21:35.136Z,7.70
2022-10-22T01:24:20.744Z,7.60
2022-10-22T01:26:57.598Z,8.46
2022-10-22T01:29:24.817Z,9.13
2022-10-22T01:31:54.563Z,9.18
2022-10-22T01:34:21.991Z,9.00
2022-10-22T01:36:49.530Z,8.74
2022-10-22T01:39:16.440Z,8.48
2022-10-22T01:41:45.508Z,8.25
2022-10-22T01:44:42.163Z,8.08
2022-10-22T01:47:21.324Z,7.90
2022-10-22T01:50:29.002Z,7.76
2022-10-22T01:53:32.893Z,7.63
2022-10-22T01:56:41.122Z,7.56
2022-10-22T01:59:35.260Z,8.60
2022-10-22T02:02:08.357Z,9.17
2022-10-22T02:04:46.995Z,9.15
2022-10-22T02:07:15.697Z,8.95
2022-10-22T02:09:43.292Z,8.75
2022-10-22T02:12:10.922Z,8.57
2022-10-22T02:14:39.196Z,8.41
2022-10-22T02:17:09.150Z,8.27
2022-10-22T02:19:47.988Z,8.16
2022-10-22T02:22:15.625Z,8.06
2022-10-22T02:24:42.857Z,7.98
2022-10-22T02:27:32.931Z,7.91
2022-10-22T02:30:10.980Z,7.85
2022-10-22T02:33:08.534Z,8.69
2022-10-22T02:35:35.557Z,9.48
2022-10-22T02:38:02.916Z,9.55
2022-10-22T02:40:30.995Z,9.41
2022-10-22T02:42:57.959Z,9.21
2022-10-22T02:45:25.422Z,9.01
2022-10-22T02:47:52.447Z,8.81
2022-10-22T02:50:21.965Z,8.64
2022-10-22T02:52:49.139Z,8.47
2022-10-22T02:55:16.080Z,8.34
2022-10-22T02:57:44.256Z,8.24
2022-10-22T03:00:11.634Z,8.14
2022-10-22T03:02:40.142Z,8.05
2022-10-22T03:05:07.878Z,8.63
2022-10-22T03:07:35.277Z,9.35
2022-10-22T03:10:03.010Z,9.52
2022-10-22T03:12:34.322Z,9.39
2022-10-22T03:15:01.258Z,9.19
2022-10-22T03:17:32.838Z,9.01
2022-10-22T03:19:59.787Z,8.83
2022-10-22T03:22:28.893Z,8.66
2022-10-22T03:24:59.101Z,8.52
2022-10-22T03:27:27.194Z,8.36
2022-10-22T03:29:54.131Z,8.22
2022-10-22T03:32:21.234Z,8.09
2022-10-22T03:34:48.609Z,8.62
2022-10-22T03:37:15.665Z,9.29
2022-10-22T03:39:42.732Z,9.40
2022-10-22T03:42:13.689Z,9.26
2022-10-22T03:44:40.877Z,9.06
2022-10-22T03:47:08.320Z,8.85
2022-10-22T03:49:35.640Z,8.65
2022-10-22T03:52:09.969Z,8.45
2022-10-22T03:57:09.414Z,8.10
2022-10-22T03:59:37.416Z,7.92
2022-10-22T04:02:04.633Z,8.38
2022-10-22T04:04:31.611Z,9.00
2022-10-22T04:06:59.077Z,9.13
2022-10-22T04:09:26.186Z,8.99
2022-10-22T04:11:53.853Z,8.78
2022-10-22T04:14:24.719Z,8.55
2022-10-22T04:16:52.222Z,8.32
2022-10-22T04:19:19.150Z,8.12
2022-10-22T04:21:46.142Z,7.92
2022-10-22T04:24:13.981Z,7.76
2022-10-22T04:26:41.638Z,7.62
2022-10-22T04:29:11.914Z,7.49
2022-10-22T04:31:43.107Z,8.11
2022-10-22T04:34:10.215Z,8.77
2022-10-22T04:36:37.440Z,8.87
2022-10-22T04:39:04.611Z,8.73
2022-10-22T04:41:34.072Z,8.50
2022-10-22T04:44:02.119Z,8.24
2022-10-22T04:46:30.867Z,8.01
2022-10-22T04:48:58.001Z,7.82
2022-10-22T04:51:25.878Z,7.68
2022-10-22T04:53:54.352Z,7.55
2022-10-22T04:56:26.386Z,8.02
2022-10-22T04:59:04.881Z,8.64
2022-10-22T05:01:35.793Z,8.71
2022-10-22T05:04:06.202Z,8.53
2022-10-22T05:06:34.327Z,8.29
2022-10-22T05:09:04.453Z,8.06
2022-10-22T05:11:37.044Z,7.86
2022-10-22T05:14:05.269Z,7.66
2022-10-22T05:16:33.379Z,7.49
2022-10-22T05:19:00.775Z,7.32
2022-10-22T05:21:32.384Z,7.90
2022-10-22T05:24:00.038Z,8.57
2022-10-22T05:26:27.338Z,8.72
2022-10-22T05:28:55.115Z,8.60
2022-10-22T05:31:22.183Z,8.42
2022-10-22T05:33:49.333Z,8.23
2022-10-22T05:36:18.413Z,8.08
2022-10-22T05:38:47.663Z,7.94
2022-10-22T05:41:16.813Z,7.85
2022-10-22T05:43:44.249Z,8.48
2022-10-22T05:46:22.030Z,9.42
2022-10-22T05:49:01.752Z,10.10
2022-10-22T05:51:30.546Z,10.57
2022-10-22T05:54:01.221Z,10.87
2022-10-22T05:56:28.946Z,11.05
2022-10-22T05:58:56.000Z,11.14
2022-10-22T06:01:25.104Z,11.40
2022-10-22T06:04:00.259Z,11.90
2022-10-22T06:06:36.317Z,12.27
2022-10-22T06:09:05.169Z,12.56
2022-10-22T06:11:35.124Z,12.99
2022-10-22T06:14:03.795Z,13.34
2022-10-22T06:16:31.209Z,13.68
2022-10-22T06:19:02.120Z,13.94
2022-10-22T06:21:29.493Z,14.17
2022-10-22T06:23:58.342Z,14.45
2022-10-22T06:26:25.287Z,14.83
2022-10-22T06:28:53.051Z,15.30
2022-10-22T06:31:20.225Z,15.74
2022-10-22T06:33:50.605Z,16.13
2022-10-22T06:36:19.825Z,16.44
2022-10-22T06:38:51.101Z,16.77
2022-10-22T06:41:18.200Z,17.02
2022-10-22T06:43:46.901Z,17.18
2022-10-22T06:46:18.991Z,17.46
2022-10-22T06:48:55.530Z,17.67
2022-10-22T06:51:23.301Z,17.92
2022-10-22T06:53:50.362Z,18.09
2022-10-22T06:56:19.085Z,18.20
2022-10-22T06:58:50.894Z,18.18
2022-10-22T07:01:19.528Z,17.98
2022-10-22T07:03:46.531Z,17.71
2022-10-22T07:06:15.306Z,17.48
2022-10-22T07:08:42.432Z,17.27
2022-10-22T07:11:11.643Z,17.07
2022-10-22T07:13:38.772Z,16.91
2022-10-22T07:16:09.239Z,16.77
2022-10-22T07:18:37.313Z,16.56
2022-10-22T07:21:08.235Z,16.26
2022-10-22T07:23:36.513Z,15.99
2022-10-22T07:26:07.427Z,15.78
2022-10-22T07:28:35.639Z,15.58
2022-10-22T07:31:02.625Z,15.45
2022-10-22T07:33:31.366Z,15.38
2022-10-22T07:35:59.991Z,15.30
2022-10-22T07:38:27.390Z,15.26
2022-10-22T07:40:54.656Z,15.24
2022-10-22T07:43:21.696Z,15.24
2022-10-22T07:45:49.753Z,15.31
2022-10-22T07:48:16.817Z,15.32
2022-10-22T07:53:17.368Z,14.99
2022-10-22T07:55:44.338Z,14.87
2022-10-22T07:58:11.320Z,14.76
2022-10-22T08:00:38.417Z,14.67
2022-10-22T08:03:05.404Z,14.67
2022-10-22T08:05:32.664Z,14.69
2022-10-22T08:07:59.626Z,14.77
2022-10-22T08:10:26.652Z,14.89
2022-10-22T08:12:54.713Z,14.99
2022-10-22T08:15:25.635Z,15.09
2022-10-22T08:17:53.125Z,15.23
2022-10-22T08:20:20.165Z,15.35
2022-10-22T08:22:48.576Z,15.55
2022-10-22T08:25:18.092Z,15.78
2022-10-22T08:27:45.434Z,15.99
2022-10-22T08:30:13.338Z,16.21
2022-10-22T08:32:40.846Z,16.38
2022-10-22T08:35:08.243Z,16.49
2022-10-22T08:37:36.089Z,16.63
2022-10-22T08:40:04.152Z,16.93
2022-10-22T08:42:49.766Z,17.24
2022-10-22T08:45:38.578Z,17.51
2022-10-22T08:48:21.644Z,17.86
2022-10-22T08:50:50.030Z,18.23
2022-10-22T08:53:22.490Z,18.70
2022-10-22T08:55:50.214Z,19.19
2022-10-22T08:58:40.276Z,19.62
2022-10-22T09:01:20.138Z,19.96
2022-10-22T09:03:51.464Z,20.20
2022-10-22T09:06:22.935Z,20.58
2022-10-22T09:08:50.184Z,20.96
2022-10-22T09:11:23.935Z,21.25
2022-10-22T09:13:51.842Z,21.61
2022-10-22T09:16:19.954Z,21.95
2022-10-22T09:19:15.086Z,22.44
2022-10-22T09:22:08.434Z,22.84
2022-10-22T09:24:35.479Z,22.82
2022-10-22T09:27:02.775Z,22.95
2022-10-22T09:29:33.618Z,23.29
2022-10-22T09:32:00.802Z,23.70
2022-10-22T09:34:31.082Z,23.98
2022-10-22T09:37:06.435Z,24.22
2022-10-22T09:39:54.104Z,24.50
2022-10-22T09:42:21.269Z,24.81
2022-10-22T09:44:56.050Z,24.91
2022-10-22T09:47:42.731Z,24.64
2022-10-22T09:50:28.877Z,24.19
2022-10-22T09:53:21.236Z,23.45
2022-10-22T09:58:26.396Z,22.87
2022-10-22T10:00:56.411Z,23.04
2022-10-22T10:03:27.782Z,23.02
2022-10-22T10:05:58.060Z,22.86
2022-10-22T10:08:27.511Z,22.68
2022-10-22T10:11:01.203Z,22.43
2022-10-22T10:13:50.355Z,22.15
2022-10-22T10:16:25.452Z,21.73
2022-10-22T10:19:11.674Z,21.39
2022-10-22T10:21:39.115Z,21.04
2022-10-22T10:24:20.756Z,20.79
2022-10-22T10:26:54.335Z,20.49
2022-10-22T10:29:33.062Z,20.26
2022-10-22T10:32:13.554Z,20.05
2022-10-22T10:34:48.973Z,19.98
2022-10-22T10:37:26.638Z,20.09
2022-10-22T10:40:08.844Z,20.18
2022-10-22T10:42:57.325Z,20.14
2022-10-22T10:45:36.985Z,20.27
2022-10-22T10:48:12.722Z,20.56
2022-10-22T10:50:40.499Z,21.13
2022-10-22T10:53:47.853Z,21.68
2022-10-22T10:56:41.448Z,21.85
2022-10-22T10:59:30.650Z,21.94
2022-10-22T11:02:09.737Z,22.02
2022-10-22T11:05:08.841Z,22.17
2022-10-22T11:07:42.794Z,22.15
2022-10-22T11:10:51.778Z,22.06
2022-10-22T11:13:22.146Z,22.01
2022-10-22T11:16:12.442Z,22.09
2022-10-22T11:19:22.524Z,22.31
2022-10-22T11:22:30.304Z,22.52
2022-10-22T11:25:13.569Z,22.48
2022-10-22T11:27:50.214Z,22.59
2022-10-22T11:30:22.062Z,23.06
2022-10-22T11:32:54.554Z,23.60
2022-10-22T11:35:26.636Z,23.76
2022-10-22T11:37:55.060Z,23.58
2022-10-22T11:40:32.704Z,23.42
2022-10-22T11:43:07.279Z,23.26
2022-10-22T11:45:42.120Z,23.09
2022-10-22T11:48:18.957Z,22.86
2022-10-22T11:50:48.582Z,22.82
2022-10-22T11:53:21.618Z,22.75
2022-10-22T11:56:18.060Z,22.68
2022-10-22T11:58:50.697Z,22.41
2022-10-22T12:01:26.898Z,22.30
2022-10-22T12:04:17.769Z,22.29
2022-10-22T12:06:56.842Z,22.18
2022-10-22T12:09:26.721Z,21.96
2022-10-22T12:11:55.504Z,21.77
2022-10-22T12:14:26.738Z,21.62
2022-10-22T12:16:59.654Z,21.43
2022-10-22T12:19:37.441Z,21.18
2022-10-22T12:22:07.591Z,21.05
2022-10-22T12:24:37.243Z,21.06
2022-10-22T12:27:04.626Z,21.17
2022-10-22T12:29:32.193Z,21.29
2022-10-22T12:32:03.365Z,21.32
2022-10-22T12:34:30.392Z,21.30
2022-10-22T12:36:57.343Z,21.32
2022-10-22T12:39:27.442Z,21.30
2022-10-22T12:41:54.670Z,21.28
2022-10-22T12:44:21.624Z,21.27
2022-10-22T12:46:52.934Z,21.27
2022-10-22T12:49:42.448Z,21.23
2022-10-22T12:52:15.167Z,21.14
2022-10-22T12:54:42.553Z,21.03
2022-10-22T12:57:14.433Z,20.90
2022-10-22T12:59:48.762Z,20.82
2022-10-22T13:02:24.762Z,20.75
2022-10-22T13:05:21.855Z,20.70
2022-10-22T13:08:03.241Z,20.64
2022-10-22T13:10:33.045Z,20.57
2022-10-22T13:13:06.464Z,20.49
2022-10-22T13:15:36.972Z,20.41
2022-10-22T13:18:29.228Z,20.33
2022-10-22T13:21:05.980Z,20.27
2022-10-22T13:23:34.140Z,20.19
2022-10-22T13:26:02.365Z,20.11
2022-10-22T13:28:33.689Z,20.04
2022-10-22T13:31:02.246Z,19.97
2022-10-22T13:33:40.393Z,19.90
2022-10-22T13:36:08.608Z,19.85
2022-10-22T13:38:36.101Z,19.79
2022-10-22T13:41:04.911Z,19.73
2022-10-22T13:43:32.417Z,19.67
2022-10-22T13:45:59.723Z,19.61
2022-10-22T13:48:26.784Z,19.56
2022-10-22T13:50:54.443Z,19.51
2022-10-22T13:53:23.213Z,19.46
2022-10-22T13:55:50.454Z,19.38
2022-10-22T13:58:19.037Z,19.33
2022-10-22T14:00:48.641Z,19.27
2022-10-22T14:03:17.731Z,19.18
2022-10-22T14:05:47.258Z,19.10
2022-10-22T14:08:19.014Z,19.05
2022-10-22T14:10:47.606Z,18.98
2022-10-22T14:13:15.724Z,18.91
2022-10-22T14:15:43.459Z,18.80
2022-10-22T14:18:12.863Z,18.66
2022-10-22T14:20:40.289Z,18.55
2022-10-22T14:25:48.194Z,18.35
2022-10-22T14:28:15.228Z,18.25
2022-10-22T14:30:42.152Z,18.14
2022-10-22T14:33:17.342Z,18.02
2022-10-22T14:35:44.300Z,17.89
2022-10-22T14:38:11.340Z,17.77
2022-10-22T14:40:39.401Z,17.65
2022-10-22T14:43:06.477Z,17.57
2022-10-22T14:45:34.148Z,17.51
2022-10-22T14:48:02.008Z,17.46
2022-10-22T14:50:29.251Z,17.41
2022-10-22T14:52:58.918Z,17.38
2022-10-22T14:55:27.229Z,17.34
2022-10-22T14:57:55.261Z,17.28
2022-10-22T15:00:22.637Z,17.19
2022-10-22T15:02:49.646Z,17.10
2022-10-22T15:05:17.684Z,17.03
2022-10-22T15:07:45.252Z,16.97
2022-10-22T15:10:12.253Z,16.92
2022-10-22T15:12:40.104Z,16.84
2022-10-22T15:15:07.514Z,16.77
2022-10-22T15:17:34.669Z,16.68
2022-10-22T15:20:04.220Z,16.59
2022-10-22T15:22:32.081Z,16.54
2022-10-22T15:24:59.064Z,16.43
2022-10-22T15:27:26.078Z,16.36
2022-10-22T15:29:54.938Z,16.29
2022-10-22T15:32:24.981Z,16.23
2022-10-22T15:34:53.119Z,16.18
2022-10-22T15:37:20.721Z,16.14
2022-10-22T15:39:49.428Z,16.10
2022-10-22T15:42:18.614Z,16.04
2022-10-22T15:44:45.976Z,15.97
2022-10-22T15:47:13.050Z,15.90
2022-10-22T15:49:41.957Z,15.83
2022-10-22T15:52:09.875Z,15.75
2022-10-22T15:54:39.632Z,15.67
2022-10-22T15:57:08.782Z,15.60
2022-10-22T15:59:36.198Z,16.13
2022-10-22T16:02:03.475Z,16.81
2022-10-22T16:04:30.774Z,16.99
2022-10-22T16:07:01.108Z,16.91
2022-10-22T16:09:28.319Z,16.75
2022-10-22T16:11:55.660Z,16.51
2022-10-22T16:14:24.139Z,16.25
2022-10-22T16:16:55.593Z,16.06
2022-10-22T16:19:23.654Z,15.91
2022-10-22T16:21:51.699Z,15.73
2022-10-22T16:24:19.204Z,15.59
2022-10-22T16:26:47.672Z,15.49
2022-10-22T16:29:15.888Z,15.43
2022-10-22T16:31:47.076Z,15.37
2022-10-22T16:34:14.567Z,15.34
2022-10-22T16:36:44.939Z,15.31
2022-10-22T16:39:12.158Z,15.26
2022-10-22T16:41:39.581Z,15.21
2022-10-22T16:44:07.891Z,15.11
2022-10-22T16:46:39.451Z,15.66
2022-10-22T16:49:06.961Z,16.31
2022-10-22T16:51:34.260Z,16.43
2022-10-22T16:54:03.667Z,16.31
2022-10-22T16:56:33.778Z,16.09
2022-10-22T16:59:00.889Z,15.87
2022-10-22T17:01:29.846Z,15.68
2022-10-22T17:03:59.480Z,15.53
2022-10-22T17:06:26.977Z,15.39
2022-10-22T17:08:54.260Z,15.24
2022-10-22T17:11:23.503Z,15.10
2022-10-22T17:13:52.766Z,15.62
2022-10-22T17:16:23.054Z,16.26
2022-10-22T17:18:50.465Z,16.35
2022-10-22T17:21:17.770Z,16.19
2022-10-22T17:23:46.301Z,15.97
2022-10-22T17:26:21.057Z,15.75
2022-10-22T17:28:48.087Z,15.55
2022-10-22T17:31:27.567Z,15.37
2022-10-22T17:33:56.003Z,15.19
2022-10-22T17:36:25.137Z,15.03
2022-10-22T17:38:53.982Z,14.89
2022-10-22T17:41:23.106Z,15.41
2022-10-22T17:43:50.197Z,16.04
2022-10-22T17:46:24.785Z,16.16
2022-10-22T17:48:56.199Z,16.00
2022-10-22T17:51:23.654Z,15.78
2022-10-22T17:53:50.972Z,15.56
2022-10-22T17:56:20.748Z,15.36
2022-10-22T17:58:48.264Z,15.18
2022-10-22T18:01:23.852Z,15.03
2022-10-22T18:03:52.044Z,14.89
2022-10-22T18:06:19.376Z,14.78
2022-10-22T18:08:46.585Z,14.62
2022-10-22T18:11:17.106Z,15.10
2022-10-22T18:13:50.670Z,15.69
2022-10-22T18:16:17.910Z,15.76
2022-10-22T18:18:48.825Z,15.58
2022-10-22T18:21:16.691Z,15.36
2022-10-22T18:23:43.815Z,15.15
2022-10-22T18:26:12.839Z,14.94
2022-10-22T18:28:40.562Z,14.72
2022-10-22T18:31:08.609Z,15.13
2022-10-22T18:33:36.345Z,15.69
2022-10-22T18:36:11.110Z,15.76
2022-10-22T18:38:38.421Z,15.59
2022-10-22T18:41:09.365Z,15.41
2022-10-22T18:43:37.386Z,15.16
2022-10-22T18:46:08.024Z,14.93
2022-10-22T18:48:37.221Z,14.71
2022-10-22T18:51:08.517Z,15.21
2022-10-22T18:53:36.716Z,15.81
2022-10-22T18:56:11.121Z,15.85
2022-10-22T18:58:42.280Z,15.60
2022-10-22T19:01:10.307Z,15.33
2022-10-22T19:03:38.923Z,15.10
2022-10-22T19:06:06.953Z,14.86
2022-10-22T19:08:35.867Z,14.61
2022-10-22T19:11:09.533Z,15.09
2022-10-22T19:13:36.567Z,15.65
2022-10-22T19:16:06.908Z,15.71
2022-10-22T19:18:34.776Z,15.52
2022-10-22T19:21:02.145Z,15.26
2022-10-22T19:23:32.815Z,15.00
2022-10-22T19:26:07.207Z,14.72
2022-10-22T19:28:34.166Z,14.35
2022-10-22T19:31:01.237Z,14.86
2022-10-22T19:33:34.017Z,15.50
2022-10-22T19:36:05.420Z,15.56
2022-10-22T19:38:37.723Z,15.33
2022-10-22T19:41:09.446Z,15.04
2022-10-22T19:43:36.426Z,14.74
2022-10-22T19:46:04.551Z,14.50
2022-10-22T19:48:31.738Z,14.32
2022-10-22T19:51:03.584Z,14.81
2022-10-22T19:53:30.926Z,15.37
2022-10-22T19:55:58.730Z,15.40
2022-10-22T19:58:27.117Z,15.21
2022-10-22T20:00:54.340Z,14.95
2022-10-22T20:03:21.871Z,14.67
2022-10-22T20:05:50.582Z,14.42
2022-10-22T20:08:17.597Z,14.20
2022-10-22T20:10:49.146Z,14.70
2022-10-22T20:13:16.409Z,15.28
2022-10-22T20:15:43.374Z,15.34
2022-10-22T20:18:10.430Z,15.16
2022-10-22T20:20:40.514Z,14.89
2022-10-22T20:23:08.788Z,14.63
2022-10-22T20:25:35.994Z,14.39
2022-10-22T20:28:02.991Z,14.77
2022-10-22T20:30:30.507Z,15.25
2022-10-22T20:32:57.570Z,15.26
2022-10-22T20:35:24.563Z,15.04
2022-10-22T20:37:51.718Z,14.74
2022-10-22T20:40:20.212Z,14.49
2022-10-22T20:42:49.420Z,14.27
2022-10-22T20:45:16.376Z,14.67
2022-10-22T20:47:51.375Z,15.20
2022-10-22T20:50:18.990Z,15.24
2022-10-22T20:52:45.923Z,15.03
2022-10-22T20:57:45.829Z,14.48
2022-10-22T21:00:15.231Z,14.23
2022-10-22T21:02:42.816Z,14.62
2022-10-22T21:05:10.095Z,15.12
2022-10-22T21:07:37.889Z,15.16
2022-10-22T21:10:05.412Z,14.96
2022-10-22T21:12:33.101Z,14.72
2022-10-22T21:15:04.622Z,14.42
2022-10-22T21:17:34.387Z,14.16
2022-10-22T21:20:01.368Z,14.51
2022-10-22T21:22:28.491Z,15.20
2022-10-22T21:24:56.131Z,15.33
2022-10-22T21:27:23.131Z,15.14
2022-10-22T21:29:50.626Z,14.85
2022-10-22T21:32:17.648Z,14.58
2022-10-22T21:34:46.467Z,14.33
2022-10-22T21:37:13.435Z,14.11
2022-10-22T21:39:42.736Z,14.58
2022-10-22T21:42:09.806Z,15.16
2022-10-22T21:44:37.414Z,15.23
2022-10-22T21:47:04.635Z,15.03
2022-10-22T21:49:31.725Z,14.78
2022-10-22T21:52:00.410Z,14.53
2022-10-22T21:54:27.961Z,14.29
2022-10-22T21:56:54.873Z,14.71
2022-10-22T21:59:21.915Z,15.24
2022-10-22T22:01:49.470Z,15.29
2022-10-22T22:04:16.410Z,15.11
2022-10-22T22:06:45.669Z,14.86
2022-10-22T22:09:12.741Z,14.60
2022-10-22T22:11:40.594Z,14.35
2022-10-22T22:14:07.507Z,14.75
2022-10-22T22:16:34.932Z,15.29
2022-10-22T22:19:05.947Z,15.33
2022-10-22T22:21:33.924Z,15.13
2022-10-22T22:24:01.035Z,14.82
2022-10-22T22:26:29.818Z,14.54
2022-10-22T22:29:00.607Z,14.29
2022-10-22T22:31:32.399Z,14.72
2022-10-22T22:34:00.903Z,15.24
2022-10-22T22:36:27.982Z,15.27
2022-10-22T22:38:56.250Z,15.04
2022-10-22T22:41:23.292Z,14.75
2022-10-22T22:43:50.757Z,14.47
2022-10-22T22:46:18.658Z,14.24
2022-10-22T22:48:49.595Z,14.71
2022-10-22T22:51:16.717Z,15.22
2022-10-22T22:53:43.711Z,15.26
2022-10-22T22:56:13.744Z,15.06
2022-10-22T22:59:35.564Z,14.54
2022-10-22T23:02:03.624Z,14.41
2022-10-22T23:04:30.658Z,14.17
2022-10-22T23:06:57.746Z,14.61
2022-10-22T23:09:25.773Z,15.17
2022-10-22T23:11:54.341Z,15.20
2022-10-22T23:14:21.385Z,14.99
2022-10-22T23:16:51.139Z,14.68
2022-10-22T23:19:20.291Z,14.38
2022-10-22T23:21:49.625Z,14.10
2022-10-22T23:24:18.905Z,14.57
2022-10-22T23:26:47.292Z,15.13
2022-10-22T23:29:25.395Z,15.14
2022-10-22T23:31:55.266Z,14.92
2022-10-22T23:34:24.078Z,14.64
2022-10-22T23:36:51.301Z,14.36
2022-10-22T23:39:20.008Z,14.10
2022-10-22T23:41:47.061Z,14.56
2022-10-22T23:44:16.250Z,15.10
2022-10-22T23:46:43.759Z,15.13
2022-10-22T23:49:10.686Z,14.92
2022-10-22T23:51:38.721Z,14.65
2022-10-22T23:54:07.195Z,14.40
2022-10-22T23:56:35.897Z,14.16
2022-10-22T23:59:03.386Z,14.63
